EHJR

K13-a Sea

K13-a Sea, The Netherlands
METAR EHJR 211255Z AUTO 12004KT //// // ///////// 05/M00 Q1027 RE// W06/H8
Observed Flight Rules
Feb-21 @ 12:55 UTC (21 minutes ago)
Wind
120° at 4 knots
Temperatures Readings
Current 5°C / 41°F
Dewpoint 0°C / 32°F
Humidity 70%
Altimeter 30.32" Hg
Pressure 1027 hPa
Elevation 50
METAR EHJR 211255Z AUTO 12004KT //// // ///////// 05/M00 Q1027 RE// W06/H8
Observed Flight Rules
Feb-21 @ 12:55 UTC
(21 minutes ago)
Wind
120° at 4 knots
Temperature Dewpoint
5°C / 41°F 0°C / 32°F
Humidity Altimeter Pressure
70% 30.32" Hg 1027 hPa